createdAt,value
2022-12-03T00:00:12.124Z,-4.80
2022-12-03T00:02:40.551Z,-4.80
2022-12-03T00:05:08.969Z,-4.70
2022-12-03T00:07:36.376Z,-4.70
2022-12-03T00:10:07.526Z,-4.70
2022-12-03T00:12:34.957Z,-4.80
2022-12-03T00:15:02.498Z,-4.70
2022-12-03T00:17:30.016Z,-4.70
2022-12-03T00:19:57.488Z,-4.80
2022-12-03T00:22:25.203Z,-4.80
2022-12-03T00:24:52.743Z,-4.80
2022-12-03T00:27:20.711Z,-4.80
2022-12-03T00:29:48.171Z,-4.70
2022-12-03T00:32:15.695Z,-4.70
2022-12-03T00:34:43.125Z,-4.70
2022-12-03T00:37:10.703Z,-4.70
2022-12-03T00:39:38.215Z,-4.70
2022-12-03T00:42:06.030Z,-4.70
2022-12-03T00:44:33.582Z,-4.80
2022-12-03T00:47:01.046Z,-4.80
2022-12-03T00:49:28.442Z,-4.70
2022-12-03T00:51:55.910Z,-4.70
2022-12-03T00:54:29.968Z,-4.70
2022-12-03T00:56:59.929Z,-4.80
2022-12-03T00:59:27.412Z,-4.80
2022-12-03T01:01:54.975Z,-4.80
2022-12-03T01:04:22.561Z,-4.90
2022-12-03T01:06:50.183Z,-4.90
2022-12-03T01:09:17.812Z,-4.80
2022-12-03T01:11:45.317Z,-4.80
2022-12-03T01:14:15.195Z,-4.80
2022-12-03T01:16:43.380Z,-4.80
2022-12-03T01:19:16.162Z,-4.70
2022-12-03T01:21:45.691Z,-4.70
2022-12-03T01:24:13.429Z,-4.60
2022-12-03T01:26:41.117Z,-4.70
2022-12-03T01:29:08.543Z,-4.60
2022-12-03T01:31:54.599Z,-4.70
2022-12-03T01:34:22.294Z,-4.70
2022-12-03T01:36:49.769Z,-4.70
2022-12-03T01:39:17.167Z,-4.80
2022-12-03T01:41:45.073Z,-4.70
2022-12-03T01:44:19.865Z,-4.60
2022-12-03T01:46:47.924Z,-4.70
2022-12-03T01:49:25.309Z,-4.70
2022-12-03T01:51:54.096Z,-4.70
2022-12-03T01:54:28.430Z,-4.70
2022-12-03T01:56:56.599Z,-4.70
2022-12-03T01:59:34.349Z,-4.70
2022-12-03T02:02:21.352Z,-4.60
2022-12-03T02:04:49.670Z,-4.70
2022-12-03T02:07:24.229Z,-4.70
2022-12-03T02:09:52.814Z,-4.70
2022-12-03T02:12:24.613Z,-4.70
2022-12-03T02:14:52.731Z,-4.80
2022-12-03T02:17:20.863Z,-4.80
2022-12-03T02:19:49.398Z,-4.70
2022-12-03T02:22:34.870Z,-4.70
2022-12-03T02:25:40.842Z,-4.70
2022-12-03T02:28:10.082Z,-4.70
2022-12-03T02:30:37.558Z,-4.80
2022-12-03T02:33:05.438Z,-4.70
2022-12-03T02:35:35.213Z,-4.70
2022-12-03T02:38:14.555Z,-4.70
2022-12-03T02:40:43.148Z,-4.80
2022-12-03T02:43:11.757Z,-4.90
2022-12-03T02:45:41.655Z,-4.80
2022-12-03T02:48:13.020Z,-4.80
2022-12-03T02:50:43.627Z,-4.90
2022-12-03T02:53:17.670Z,-4.80
2022-12-03T02:55:45.699Z,-4.80
2022-12-03T02:58:13.779Z,-4.80
2022-12-03T03:00:41.762Z,-4.80
2022-12-03T03:03:10.692Z,-4.70
2022-12-03T03:05:41.769Z,-4.80
2022-12-03T03:08:10.751Z,-4.80
2022-12-03T03:10:40.773Z,-4.80
2022-12-03T03:13:12.161Z,-4.70
2022-12-03T03:15:40.895Z,-4.80
2022-12-03T03:18:09.726Z,-4.70
2022-12-03T03:20:37.836Z,-4.70
2022-12-03T03:23:20.005Z,-4.70
2022-12-03T03:26:08.948Z,-4.70
2022-12-03T03:28:40.094Z,-4.80
2022-12-03T03:31:09.713Z,-4.70
2022-12-03T03:33:39.253Z,-4.80
2022-12-03T03:36:07.991Z,-4.80
2022-12-03T03:38:36.668Z,-4.70
2022-12-03T03:41:06.362Z,-4.70
2022-12-03T03:43:35.214Z,-4.70
2022-12-03T03:46:05.135Z,-4.70
2022-12-03T03:48:35.102Z,-4.80
2022-12-03T03:51:09.124Z,-4.80
2022-12-03T03:53:41.924Z,-4.70
2022-12-03T03:56:10.029Z,-4.80
2022-12-03T03:58:38.661Z,-4.70
2022-12-03T04:01:06.290Z,-4.70
2022-12-03T04:03:35.149Z,-4.80
2022-12-03T04:06:02.737Z,-4.70
2022-12-03T04:08:30.623Z,-4.70
2022-12-03T04:11:16.415Z,-4.70
2022-12-03T04:13:43.935Z,-4.70
2022-12-03T04:16:11.311Z,-4.70
2022-12-03T04:18:44.680Z,-4.70
2022-12-03T04:21:39.683Z,-4.70
2022-12-03T04:24:08.829Z,-4.70
2022-12-03T04:27:09.624Z,-4.70
2022-12-03T04:29:37.041Z,-4.70
2022-12-03T04:32:22.964Z,-4.60
2022-12-03T04:35:08.816Z,-4.70
2022-12-03T04:37:36.085Z,-4.70
2022-12-03T04:40:23.810Z,-4.70
2022-12-03T04:42:51.085Z,-4.60
2022-12-03T04:45:18.317Z,-4.60
2022-12-03T04:47:45.604Z,-4.70
2022-12-03T04:50:12.923Z,-4.70
2022-12-03T04:52:40.164Z,-4.70
2022-12-03T04:55:07.804Z,-4.60
2022-12-03T04:57:35.243Z,-4.70
2022-12-03T05:00:04.142Z,-4.60
2022-12-03T05:02:31.475Z,-4.60
2022-12-03T05:04:58.897Z,-4.70
2022-12-03T05:07:26.380Z,-4.80
2022-12-03T05:09:53.690Z,-4.80
2022-12-03T05:12:21.057Z,-4.70
2022-12-03T05:14:48.415Z,-4.70
2022-12-03T05:17:15.688Z,-4.70
2022-12-03T05:20:01.249Z,-4.80
2022-12-03T05:22:28.577Z,-4.70
2022-12-03T05:24:56.255Z,-4.70
2022-12-03T05:27:24.504Z,-4.90
2022-12-03T05:29:52.259Z,-4.80
2022-12-03T05:32:20.458Z,-4.80
2022-12-03T05:34:47.907Z,-4.90
2022-12-03T05:37:15.269Z,-4.90
2022-12-03T05:39:42.574Z,-4.90
2022-12-03T05:42:29.054Z,-4.80
2022-12-03T05:44:56.513Z,-4.80
2022-12-03T05:47:24.059Z,-4.90
2022-12-03T05:49:51.377Z,-4.90
2022-12-03T05:52:18.539Z,-4.90
2022-12-03T05:54:45.778Z,-4.90
2022-12-03T05:57:13.019Z,-4.80
2022-12-03T05:59:40.259Z,-4.90
2022-12-03T06:02:07.596Z,-4.90
2022-12-03T06:04:34.868Z,-5.00
2022-12-03T06:07:02.148Z,-4.90
2022-12-03T06:09:29.578Z,-5.00
2022-12-03T06:11:56.814Z,-5.00
2022-12-03T06:14:24.086Z,-5.00
2022-12-03T06:16:51.535Z,-5.00
2022-12-03T06:19:18.917Z,-5.10
2022-12-03T06:21:46.791Z,-5.00
2022-12-03T06:24:14.160Z,-5.10
2022-12-03T06:26:41.419Z,-5.10
2022-12-03T06:29:08.854Z,-5.20
2022-12-03T06:31:37.140Z,-5.20
2022-12-03T06:34:04.384Z,-5.20
2022-12-03T06:36:31.729Z,-5.10
2022-12-03T06:38:59.035Z,-5.00
2022-12-03T06:41:26.414Z,-5.10
2022-12-03T06:43:53.655Z,-5.10
2022-12-03T06:46:20.876Z,-5.10
2022-12-03T06:48:48.456Z,-5.10
2022-12-03T06:51:15.755Z,-5.00
2022-12-03T06:53:43.254Z,-5.00
2022-12-03T06:56:10.635Z,-5.00
2022-12-03T06:58:38.062Z,-5.00
2022-12-03T07:01:06.425Z,-5.00
2022-12-03T07:03:34.049Z,-5.00
2022-12-03T07:06:01.819Z,-5.00
2022-12-03T07:08:29.240Z,-4.90
2022-12-03T07:10:57.056Z,-4.90
2022-12-03T07:13:24.456Z,-4.90
2022-12-03T07:15:51.872Z,-4.80
2022-12-03T07:18:19.349Z,-4.80
2022-12-03T07:20:46.739Z,-4.80
2022-12-03T07:23:14.263Z,-4.70
2022-12-03T07:25:41.675Z,-4.70
2022-12-03T07:28:09.110Z,-4.70
2022-12-03T07:30:36.473Z,-4.70
2022-12-03T07:33:03.920Z,-4.70
2022-12-03T07:35:31.247Z,-4.70
2022-12-03T07:37:58.707Z,-4.70
2022-12-03T07:40:26.171Z,-4.60
2022-12-03T07:42:53.651Z,-4.70
2022-12-03T07:45:21.188Z,-4.70
2022-12-03T07:47:48.574Z,-4.70
2022-12-03T07:50:15.977Z,-4.60
2022-12-03T07:52:43.545Z,-4.60
2022-12-03T07:55:12.132Z,-4.60
2022-12-03T07:57:39.908Z,-4.50
2022-12-03T08:00:08.301Z,-4.60
2022-12-03T08:02:35.882Z,-4.50
2022-12-03T08:05:03.814Z,-4.50
2022-12-03T08:07:31.477Z,-4.40
2022-12-03T08:09:59.739Z,-4.50
2022-12-03T08:12:47.427Z,-4.60
2022-12-03T08:15:18.656Z,-4.60
2022-12-03T08:17:52.191Z,-4.60
2022-12-03T08:20:25.227Z,-4.50
2022-12-03T08:22:54.016Z,-4.60
2022-12-03T08:25:25.413Z,-4.70
2022-12-03T08:27:57.104Z,-4.80
2022-12-03T08:30:24.686Z,-4.70
2022-12-03T08:32:52.256Z,-4.80
2022-12-03T08:35:26.180Z,-4.80
2022-12-03T08:38:10.694Z,-4.80
2022-12-03T08:40:41.769Z,-4.80
2022-12-03T08:43:25.088Z,-4.80
2022-12-03T08:45:58.016Z,-4.80
2022-12-03T08:48:33.775Z,-4.70
2022-12-03T08:51:24.213Z,-4.60
2022-12-03T08:54:01.053Z,-4.70
2022-12-03T08:56:31.144Z,-4.50
2022-12-03T08:59:03.975Z,-2.80
2022-12-03T09:01:37.887Z,-3.30
2022-12-03T09:04:39.501Z,-3.50
2022-12-03T09:07:07.019Z,-3.80
2022-12-03T09:09:35.294Z,-3.90
2022-12-03T09:12:03.466Z,-4.10
2022-12-03T09:14:30.945Z,-4.00
2022-12-03T09:16:58.531Z,-4.10
2022-12-03T09:19:27.859Z,-4.20
2022-12-03T09:21:55.329Z,-4.10
2022-12-03T09:24:23.108Z,-4.20
2022-12-03T09:26:51.155Z,-4.20
2022-12-03T09:29:18.647Z,-4.10
2022-12-03T09:31:46.254Z,-4.20
2022-12-03T09:34:13.768Z,-4.20
2022-12-03T09:36:41.417Z,-4.10
2022-12-03T09:39:08.854Z,-4.10
2022-12-03T09:41:36.530Z,-4.20
2022-12-03T09:44:05.543Z,-4.10
2022-12-03T09:46:36.395Z,-4.10
2022-12-03T09:49:07.500Z,-4.10
2022-12-03T09:51:39.535Z,-4.20
2022-12-03T09:54:08.335Z,-4.10
2022-12-03T09:56:38.332Z,-4.10
2022-12-03T09:59:16.051Z,-4.10
2022-12-03T10:01:44.524Z,-4.10
2022-12-03T10:04:12.535Z,-4.00
2022-12-03T10:06:45.516Z,-4.10
2022-12-03T10:09:17.686Z,-4.00
2022-12-03T10:11:45.147Z,-4.00
2022-12-03T10:14:15.021Z,-4.00
2022-12-03T10:16:42.643Z,-3.90
2022-12-03T10:19:24.137Z,-4.00
2022-12-03T10:21:51.670Z,-4.00
2022-12-03T10:24:28.952Z,-3.90
2022-12-03T10:27:04.664Z,-4.00
2022-12-03T10:29:36.649Z,-4.30
2022-12-03T10:32:10.342Z,-4.30
2022-12-03T10:34:41.069Z,-4.40
2022-12-03T10:37:20.582Z,-4.50
2022-12-03T10:40:09.572Z,-4.60
2022-12-03T10:42:40.396Z,-4.70
2022-12-03T10:45:23.336Z,-4.70
2022-12-03T10:48:13.566Z,-4.70
2022-12-03T10:51:12.333Z,-4.70
2022-12-03T10:53:41.847Z,-4.70
2022-12-03T10:56:25.147Z,-4.70
2022-12-03T10:58:53.212Z,-4.70
2022-12-03T11:01:23.396Z,-4.70
2022-12-03T11:03:52.205Z,-4.70
2022-12-03T11:06:22.595Z,-4.70
2022-12-03T11:08:59.461Z,-4.70
2022-12-03T11:11:31.583Z,-4.70
2022-12-03T11:14:00.817Z,-4.80
2022-12-03T11:16:40.331Z,-4.80
2022-12-03T11:19:13.818Z,-4.90
2022-12-03T11:22:06.058Z,-4.80
2022-12-03T11:24:35.505Z,-4.70
2022-12-03T11:27:03.178Z,-4.70
2022-12-03T11:29:51.768Z,-4.70
2022-12-03T11:32:43.684Z,-4.60
2022-12-03T11:35:16.244Z,-4.60
2022-12-03T11:37:43.730Z,-4.50
2022-12-03T11:40:17.099Z,-4.60
2022-12-03T11:42:45.684Z,-4.60
2022-12-03T11:45:38.598Z,-4.70
2022-12-03T11:48:13.088Z,-4.70
2022-12-03T11:50:44.229Z,-4.70
2022-12-03T11:53:11.619Z,-4.70
2022-12-03T11:55:47.163Z,-4.80
2022-12-03T11:58:17.563Z,-4.90
2022-12-03T12:00:57.299Z,-4.90
2022-12-03T12:03:28.739Z,-4.90
2022-12-03T12:06:15.563Z,-5.00
2022-12-03T12:08:57.204Z,-5.00
2022-12-03T12:11:33.732Z,-5.10
2022-12-03T12:14:06.215Z,-5.10
2022-12-03T12:16:44.507Z,-5.30
2022-12-03T12:19:32.009Z,-5.20
2022-12-03T12:22:30.409Z,-5.30
2022-12-03T12:25:20.731Z,-5.20
2022-12-03T12:27:51.310Z,-5.20
2022-12-03T12:30:21.892Z,-5.20
2022-12-03T12:32:51.787Z,-5.20
2022-12-03T12:35:27.323Z,-5.10
2022-12-03T12:37:59.969Z,-5.20
2022-12-03T12:40:30.732Z,-5.10
2022-12-03T12:43:05.326Z,-5.00
2022-12-03T12:45:41.672Z,-5.10
2022-12-03T12:48:23.820Z,-5.10
2022-12-03T12:51:19.156Z,-5.20
2022-12-03T12:53:47.148Z,-5.30
2022-12-03T12:56:25.717Z,-5.40
2022-12-03T12:58:54.209Z,-5.50
2022-12-03T13:01:27.755Z,-5.60
2022-12-03T13:03:55.858Z,-5.60
2022-12-03T13:06:28.382Z,-5.80
2022-12-03T13:08:56.297Z,-5.80
2022-12-03T13:11:41.800Z,-5.70
2022-12-03T13:14:24.185Z,-5.60
2022-12-03T13:16:55.045Z,-5.60
2022-12-03T13:19:25.368Z,-5.70
2022-12-03T13:22:15.311Z,-5.60
2022-12-03T13:24:48.467Z,-5.70
2022-12-03T13:27:18.762Z,-5.80
2022-12-03T13:29:54.947Z,-5.80
2022-12-03T13:32:31.415Z,-5.80
2022-12-03T13:35:24.778Z,-5.70
2022-12-03T13:37:52.255Z,-5.60
2022-12-03T13:40:31.691Z,-5.60
2022-12-03T13:42:59.807Z,-5.70
2022-12-03T13:45:35.371Z,-5.60
2022-12-03T13:48:20.600Z,-5.50
2022-12-03T13:50:48.152Z,-5.60
2022-12-03T13:53:26.457Z,-5.50
2022-12-03T13:56:12.385Z,-5.60
2022-12-03T13:58:39.897Z,-5.70
2022-12-03T14:01:07.579Z,-5.70
2022-12-03T14:03:35.501Z,-5.80
2022-12-03T14:06:02.884Z,-5.90
2022-12-03T14:08:30.352Z,-6.00
2022-12-03T14:11:00.316Z,-5.50
2022-12-03T14:13:28.233Z,-4.10
2022-12-03T14:15:55.890Z,-4.00
2022-12-03T14:18:23.390Z,-4.20
2022-12-03T14:20:50.844Z,-4.60
2022-12-03T14:23:18.230Z,-5.10
2022-12-03T14:25:49.214Z,-5.50
2022-12-03T14:28:17.842Z,-5.60
2022-12-03T14:30:45.430Z,-5.70
2022-12-03T14:33:13.709Z,-5.80
2022-12-03T14:35:42.723Z,-5.70
2022-12-03T14:38:10.039Z,-5.00
2022-12-03T14:40:38.074Z,-5.20
2022-12-03T14:43:05.992Z,-5.40
2022-12-03T14:45:33.374Z,-5.60
2022-12-03T14:48:00.830Z,-5.80
2022-12-03T14:50:28.400Z,-5.90
2022-12-03T14:52:55.962Z,-5.90
2022-12-03T14:55:24.034Z,-6.00
2022-12-03T14:57:51.474Z,-6.00
2022-12-03T15:00:19.479Z,-6.00
2022-12-03T15:02:47.482Z,-5.90
2022-12-03T15:05:22.214Z,-5.90
2022-12-03T15:07:55.047Z,-6.00
2022-12-03T15:10:27.971Z,-6.00
2022-12-03T15:12:56.690Z,-6.00
2022-12-03T15:15:27.376Z,-6.10
2022-12-03T15:17:55.310Z,-6.00
2022-12-03T15:20:25.229Z,-6.00
2022-12-03T15:22:55.019Z,-5.90
2022-12-03T15:25:25.671Z,-5.90
2022-12-03T15:27:57.285Z,-6.10
2022-12-03T15:30:26.126Z,-5.90
2022-12-03T15:32:57.775Z,-5.90
2022-12-03T15:35:25.270Z,-5.90
2022-12-03T15:37:53.142Z,-5.90
2022-12-03T15:40:22.089Z,-5.90
2022-12-03T15:42:51.384Z,-5.90
2022-12-03T15:45:19.215Z,-5.90
2022-12-03T15:47:51.551Z,-6.00
2022-12-03T15:50:20.288Z,-6.00
2022-12-03T15:52:50.068Z,-6.00
2022-12-03T15:55:18.549Z,-5.90
2022-12-03T15:57:47.063Z,-6.00
2022-12-03T16:00:15.643Z,-6.00
2022-12-03T16:02:49.109Z,-6.00
2022-12-03T16:05:20.094Z,-5.90
2022-12-03T16:07:47.503Z,-5.90
2022-12-03T16:10:18.624Z,-5.90
2022-12-03T16:12:46.099Z,-5.90
2022-12-03T16:15:13.422Z,-5.80
2022-12-03T16:17:41.640Z,-5.80
2022-12-03T16:20:11.559Z,-5.90
2022-12-03T16:22:39.400Z,-5.90
2022-12-03T16:25:07.527Z,-5.90
2022-12-03T16:27:37.832Z,-5.80
2022-12-03T16:30:10.992Z,-5.80
2022-12-03T16:32:40.433Z,-5.80
2022-12-03T16:35:08.448Z,-5.80
2022-12-03T16:37:36.747Z,-5.80
2022-12-03T16:40:06.613Z,-5.90
2022-12-03T16:42:34.862Z,-5.70
2022-12-03T16:45:05.445Z,-5.70
2022-12-03T16:47:39.355Z,-5.80
2022-12-03T16:50:18.720Z,-5.90
2022-12-03T16:52:50.226Z,-5.90
2022-12-03T16:55:17.802Z,-5.90
2022-12-03T16:57:48.234Z,-5.90
2022-12-03T17:00:18.942Z,-5.80
2022-12-03T17:02:48.573Z,-5.90
2022-12-03T17:05:17.040Z,-5.80
2022-12-03T17:07:47.846Z,-5.80
2022-12-03T17:10:19.525Z,-5.90
2022-12-03T17:13:08.952Z,-5.80
2022-12-03T17:15:35.099Z,-5.90
2022-12-03T17:18:06.030Z,-5.90
2022-12-03T17:20:34.880Z,-5.90
2022-12-03T17:23:02.564Z,-5.90
2022-12-03T17:25:31.088Z,-5.80
2022-12-03T17:27:58.365Z,-5.90
2022-12-03T17:30:26.253Z,-5.90
2022-12-03T17:32:53.766Z,-5.80
2022-12-03T17:35:21.503Z,-5.90
2022-12-03T17:37:50.040Z,-5.90
2022-12-03T17:40:18.005Z,-6.00
2022-12-03T17:42:49.941Z,-5.50
2022-12-03T17:45:18.199Z,-5.60
2022-12-03T17:47:45.888Z,-5.60
2022-12-03T17:50:13.846Z,-5.60
2022-12-03T17:52:42.122Z,-5.80
2022-12-03T17:55:12.755Z,-5.80
2022-12-03T17:57:45.387Z,-5.80
2022-12-03T18:00:15.817Z,-5.90
2022-12-03T18:02:43.787Z,-5.90
2022-12-03T18:05:11.431Z,-5.90
2022-12-03T18:07:39.094Z,-5.90
2022-12-03T18:10:08.053Z,-6.00
2022-12-03T18:12:35.379Z,-5.90
2022-12-03T18:15:03.614Z,-6.10
2022-12-03T18:17:31.023Z,-6.00
2022-12-03T18:19:59.273Z,-6.10
2022-12-03T18:22:28.242Z,-6.20
2022-12-03T18:24:57.723Z,-6.10
2022-12-03T18:27:25.345Z,-6.20
2022-12-03T18:29:53.358Z,-6.20
2022-12-03T18:32:29.907Z,-6.20
2022-12-03T18:34:58.712Z,-6.20
2022-12-03T18:37:28.769Z,-6.30
2022-12-03T18:39:57.918Z,-6.30
2022-12-03T18:42:25.860Z,-6.40
2022-12-03T18:44:57.010Z,-6.40
2022-12-03T18:47:28.356Z,-6.40
2022-12-03T18:50:01.159Z,-6.40
2022-12-03T18:52:28.948Z,-6.40
2022-12-03T18:55:00.566Z,-6.40
2022-12-03T18:57:30.648Z,-6.30
2022-12-03T19:00:00.158Z,-6.30
2022-12-03T19:05:17.036Z,-6.40
2022-12-03T19:07:44.809Z,-6.30
2022-12-03T19:10:14.845Z,-6.20
2022-12-03T19:12:44.470Z,-6.30
2022-12-03T19:15:14.552Z,-6.30
2022-12-03T19:17:43.842Z,-6.30
2022-12-03T19:20:13.380Z,-6.40
2022-12-03T19:22:41.615Z,-6.20
2022-12-03T19:25:10.623Z,-6.30
2022-12-03T19:27:38.981Z,-6.30
2022-12-03T19:30:09.205Z,-6.20
2022-12-03T19:32:39.199Z,-6.20
2022-12-03T19:35:12.022Z,-6.20
2022-12-03T19:37:42.069Z,-6.10
2022-12-03T19:40:11.957Z,-6.20
2022-12-03T19:42:42.611Z,-6.10
2022-12-03T19:45:11.670Z,-6.10
2022-12-03T19:47:40.297Z,-6.10
2022-12-03T19:50:11.005Z,-6.10
2022-12-03T19:52:41.135Z,-6.00
2022-12-03T19:55:11.169Z,-5.90
2022-12-03T19:57:40.189Z,-5.90
2022-12-03T20:00:11.803Z,-5.80
2022-12-03T20:02:41.506Z,-5.80
2022-12-03T20:05:09.418Z,-5.80
2022-12-03T20:07:37.374Z,-5.80
2022-12-03T20:10:05.939Z,-5.70
2022-12-03T20:12:34.772Z,-5.70
2022-12-03T20:15:06.110Z,-5.50
2022-12-03T20:17:35.258Z,-5.40
2022-12-03T20:20:04.654Z,-5.50
2022-12-03T20:22:35.897Z,-5.50
2022-12-03T20:25:05.719Z,-5.40
2022-12-03T20:27:36.181Z,-5.40
2022-12-03T20:30:05.823Z,-5.30
2022-12-03T20:32:38.399Z,-5.30
2022-12-03T20:35:10.888Z,-5.20
2022-12-03T20:37:42.869Z,-5.30
2022-12-03T20:40:13.396Z,-5.30
2022-12-03T20:42:41.184Z,-5.20
2022-12-03T20:45:11.092Z,-5.10
2022-12-03T20:47:41.302Z,-5.10
2022-12-03T20:50:09.618Z,-5.00
2022-12-03T20:52:52.908Z,-5.00
2022-12-03T20:55:28.883Z,-5.00
2022-12-03T20:57:57.656Z,-5.00
2022-12-03T21:00:25.181Z,-5.00
2022-12-03T21:02:52.752Z,-5.00
2022-12-03T21:05:20.711Z,-5.00
2022-12-03T21:07:49.355Z,-4.90
2022-12-03T21:10:46.274Z,-4.90
2022-12-03T21:13:19.343Z,-5.00
2022-12-03T21:15:47.370Z,-4.90
2022-12-03T21:18:17.723Z,-4.80
2022-12-03T21:20:47.878Z,-4.80
2022-12-03T21:23:15.489Z,-4.80
2022-12-03T21:25:42.783Z,-4.80
2022-12-03T21:28:10.297Z,-4.70
2022-12-03T21:30:39.710Z,-4.70
2022-12-03T21:33:07.434Z,-4.70
2022-12-03T21:35:38.992Z,-4.70
2022-12-03T21:38:06.312Z,-4.70
2022-12-03T21:40:33.818Z,-4.60
2022-12-03T21:43:01.117Z,-4.60
2022-12-03T21:45:28.484Z,-4.60
2022-12-03T21:47:55.862Z,-4.60
2022-12-03T21:50:23.237Z,-4.60
2022-12-03T21:52:51.643Z,-4.60
2022-12-03T21:55:18.937Z,-4.60
2022-12-03T21:57:46.298Z,-4.60
2022-12-03T22:00:14.635Z,-4.50
2022-12-03T22:02:42.199Z,-4.50
2022-12-03T22:05:11.493Z,-4.40
2022-12-03T22:07:40.257Z,-4.50
2022-12-03T22:10:10.323Z,-4.40
2022-12-03T22:12:38.022Z,-4.40
2022-12-03T22:15:06.106Z,-4.40
2022-12-03T22:17:36.276Z,-4.30
2022-12-03T22:20:05.645Z,-4.30
2022-12-03T22:22:32.941Z,-4.30
2022-12-03T22:25:00.195Z,-4.30
2022-12-03T22:27:27.624Z,-4.20
2022-12-03T22:29:55.303Z,-4.20
2022-12-03T22:32:24.181Z,-4.30
2022-12-03T22:34:51.561Z,-4.20
2022-12-03T22:37:19.076Z,-4.30
2022-12-03T22:39:46.607Z,-4.20
2022-12-03T22:42:14.222Z,-4.20
2022-12-03T22:44:41.667Z,-4.10
2022-12-03T22:47:09.567Z,-4.10
2022-12-03T22:49:36.860Z,-4.10
2022-12-03T22:52:04.377Z,-4.10
2022-12-03T22:54:31.779Z,-4.10
2022-12-03T22:56:59.215Z,-4.00
2022-12-03T22:59:26.795Z,-3.90
2022-12-03T23:01:54.285Z,-4.00
2022-12-03T23:04:21.738Z,-3.90
2022-12-03T23:06:49.280Z,-4.00
2022-12-03T23:09:16.812Z,-3.90
2022-12-03T23:11:45.753Z,-3.80
2022-12-03T23:14:13.458Z,-4.00
2022-12-03T23:16:41.706Z,-3.80
2022-12-03T23:19:09.121Z,-3.90
2022-12-03T23:21:36.873Z,-3.90
2022-12-03T23:24:06.341Z,-3.80
2022-12-03T23:26:38.019Z,-3.80
2022-12-03T23:29:06.716Z,-3.80
2022-12-03T23:31:34.867Z,-3.70
2022-12-03T23:34:03.232Z,-3.80
2022-12-03T23:36:33.222Z,-3.80
2022-12-03T23:39:00.828Z,-3.80
2022-12-03T23:41:28.697Z,-3.70
2022-12-03T23:43:57.096Z,-3.60
2022-12-03T23:46:26.168Z,-3.50
2022-12-03T23:48:54.030Z,-3.60
2022-12-03T23:51:24.750Z,-3.50
2022-12-03T23:53:54.516Z,-3.50
2022-12-03T23:56:27.131Z,-3.60
2022-12-03T23:58:54.698Z,-3.50
